Time;durP1;ratioP1;P1;durP2;ratioP2;P2;SDS_P1;SDS_P2;PMS_P1;PMS_P2;Temp;Humidity;BMP_temperature;BMP_pressure;BME280_temperature;BME280_humidity;BME280_pressure;Samples;Min_cycle;Max_cycle;Signal;HPM_P1;HPM_P2
2023/07/25 00:00:44;;;;;;;24.02;21.73;;;19.50;99.90;;;;;;4972350;28;20054;-63
2023/07/25 00:03:10;;;;;;;21.80;19.60;;;19.50;80.00;;;;;;4972016;28;20055;-64
2023/07/25 00:05:36;;;;;;;20.27;18.42;;;19.40;1.00;;;;;;4972638;28;20097;-64
2023/07/25 00:08:02;;;;;;;21.88;19.88;;;19.30;99.90;;;;;;4971723;28;20057;-64
2023/07/25 00:10:27;;;;;;;23.13;21.02;;;19.50;99.90;;;;;;4972280;28;20027;-64
2023/07/25 00:12:55;;;;;;;26.92;24.17;;;19.40;99.90;;;;;;4972135;28;20511;-64
2023/07/25 00:15:20;;;;;;;27.85;24.98;;;19.40;99.90;;;;;;4971987;28;20038;-63
2023/07/25 00:17:46;;;;;;;26.90;24.23;;;19.50;99.90;;;;;;4971901;28;20043;-64
2023/07/25 00:20:12;;;;;;;24.63;22.42;;;19.40;99.90;;;;;;4971807;28;20047;-63
2023/07/25 00:22:37;;;;;;;24.00;21.63;;;19.40;99.90;;;;;;4972147;28;20424;-64
2023/07/25 00:25:03;;;;;;;22.70;20.55;;;19.40;99.90;;;;;;4971883;28;20042;-63
2023/07/25 00:27:28;;;;;;;23.25;21.17;;;19.30;99.90;;;;;;4971980;28;20493;-64
2023/07/25 00:29:54;;;;;;;22.13;20.08;;;19.30;99.90;;;;;;4971882;28;20408;-64
2023/07/25 00:32:19;;;;;;;23.90;21.90;;;19.40;99.90;;;;;;4971606;28;20539;-63
2023/07/25 00:34:45;;;;;;;25.15;22.65;;;19.30;99.90;;;;;;4971904;28;20460;-64
2023/07/25 00:37:10;;;;;;;26.42;24.15;;;19.30;99.90;;;;;;4971228;28;20658;-64
2023/07/25 00:39:36;;;;;;;27.92;24.70;;;19.30;99.90;;;;;;4971630;28;20042;-63
2023/07/25 00:42:02;;;;;;;26.33;23.92;;;19.20;99.90;;;;;;4971402;28;20082;-63
2023/07/25 00:44:27;;;;;;;27.95;24.92;;;19.20;99.90;;;;;;4971770;28;20042;-64
2023/07/25 00:46:53;;;;;;;26.88;24.25;;;19.10;99.90;;;;;;4971288;28;20608;-63
2023/07/25 00:49:18;;;;;;;26.90;24.33;;;19.10;99.90;;;;;;4971575;28;20485;-63
2023/07/25 00:51:44;;;;;;;27.73;25.05;;;19.10;99.90;;;;;;4970802;28;20039;-63
2023/07/25 00:54:10;;;;;;;28.10;23.50;;;19.10;99.90;;;;;;4971490;28;20090;-63
2023/07/25 00:56:35;;;;;;;24.42;21.80;;;19.20;99.90;;;;;;4969531;28;20042;-64
2023/07/25 00:59:01;;;;;;;23.83;21.17;;;19.30;99.90;;;;;;4971928;28;20074;-63
2023/07/25 01:01:28;;;;;;;20.77;18.67;;;19.00;99.90;;;;;;4971209;28;20114;-63
2023/07/25 01:03:55;;;;;;;22.17;19.95;;;19.00;99.90;;;;;;4970958;28;20061;-63
2023/07/25 01:06:21;;;;;;;23.13;20.80;;;19.00;30.00;;;;;;4970056;28;20038;-63
2023/07/25 01:08:51;;;;;;;25.65;23.15;;;19.00;28.20;;;;;;4970975;28;20469;-64
2023/07/25 01:11:17;;;;;;;26.25;23.25;;;19.10;57.40;;;;;;4971120;28;20102;-64
2023/07/25 01:13:44;;;;;;;24.67;22.15;;;19.00;90.70;;;;;;4971463;28;20074;-64
2023/07/25 01:16:12;;;;;;;22.05;19.88;;;19.10;96.30;;;;;;4970636;28;20509;-63
2023/07/25 01:18:39;;;;;;;24.15;20.58;;;19.10;14.00;;;;;;4971394;28;20042;-63
2023/07/25 01:21:05;;;;;;;23.30;20.05;;;19.20;1.00;;;;;;4971370;28;20039;-64
2023/07/25 01:23:32;;;;;;;24.17;21.60;;;19.20;1.00;;;;;;4971381;28;20047;-63
2023/07/25 01:25:57;;;;;;;23.90;18.48;;;19.20;1.00;;;;;;4971105;28;20031;-64
2023/07/25 01:28:23;;;;;;;20.50;18.52;;;19.20;1.00;;;;;;4971514;28;20042;-64
2023/07/25 01:30:49;;;;;;;20.63;18.42;;;19.10;1.00;;;;;;4971075;28;20046;-64
2023/07/25 01:33:14;;;;;;;19.02;16.35;;;19.50;99.90;;;;;;4971230;28;20434;-64
2023/07/25 01:35:40;;;;;;;27.10;17.48;;;19.60;99.90;;;;;;4970793;28;20501;-64
2023/07/25 01:38:05;;;;;;;21.20;19.17;;;19.00;99.90;;;;;;4970131;28;20042;-64
2023/07/25 01:40:31;;;;;;;23.30;20.80;;;18.90;99.90;;;;;;4971329;28;20123;-64
2023/07/25 01:42:56;;;;;;;24.30;22.05;;;19.10;99.90;;;;;;4970005;28;20462;-64
2023/07/25 01:45:22;;;;;;;23.98;21.77;;;18.80;99.90;;;;;;4971149;28;20038;-64
2023/07/25 01:47:47;;;;;;;23.30;21.00;;;18.70;99.90;;;;;;4971113;28;20086;-63
2023/07/25 01:50:13;;;;;;;21.42;19.02;;;18.80;99.90;;;;;;4971037;28;20038;-64
2023/07/25 01:52:38;;;;;;;25.02;21.55;;;18.80;99.90;;;;;;4969661;28;20047;-64
2023/07/25 01:55:04;;;;;;;22.40;19.85;;;18.80;99.90;;;;;;4970883;28;20035;-64
2023/07/25 01:57:30;;;;;;;20.40;18.38;;;18.70;99.90;;;;;;4970342;28;20433;-63
2023/07/25 01:59:57;;;;;;;22.77;20.40;;;19.30;99.90;;;;;;4971022;28;20063;-63
2023/07/25 02:02:23;;;;;;;24.48;22.27;;;18.70;99.90;;;;;;4972534;28;20043;-64
2023/07/25 02:04:48;;;;;;;24.73;22.27;;;18.70;99.90;;;;;;4974490;28;20110;-63
2023/07/25 02:07:14;;;;;;;28.67;23.40;;;18.60;99.90;;;;;;4974034;28;20047;-64
2023/07/25 02:09:39;;;;;;;24.75;22.00;;;18.60;99.90;;;;;;4974419;28;20555;-63
2023/07/25 02:12:06;;;;;;;24.50;22.10;;;18.60;1.00;;;;;;4974171;28;20489;-63
2023/07/25 02:14:32;;;;;;;21.15;18.75;;;18.50;1.00;;;;;;4974410;28;20049;-64
2023/07/25 02:16:57;;;;;;;21.98;19.85;;;18.50;99.90;;;;;;4973180;28;20034;-63
2023/07/25 02:19:23;;;;;;;24.42;21.92;;;18.60;99.90;;;;;;4974197;28;20077;-63
2023/07/25 02:21:48;;;;;;;25.83;23.30;;;18.60;99.90;;;;;;4974584;28;20090;-64
2023/07/25 02:24:14;;;;;;;25.90;23.48;;;18.60;99.90;;;;;;4973819;28;20035;-63
2023/07/25 02:26:40;;;;;;;27.50;22.50;;;18.50;1.00;;;;;;4971361;28;20083;-63
2023/07/25 02:29:05;;;;;;;25.27;22.67;;;18.50;1.00;;;;;;4973350;28;20038;-64
2023/07/25 02:31:31;;;;;;;26.90;23.90;;;18.70;1.00;;;;;;4973017;28;20042;-64
2023/07/25 02:33:56;;;;;;;27.08;24.27;;;18.70;1.00;;;;;;4973979;28;20452;-63
2023/07/25 02:36:22;;;;;;;28.63;25.65;;;18.40;1.00;;;;;;4971652;28;20034;-63
2023/07/25 02:38:47;;;;;;;27.98;25.15;;;18.20;1.00;;;;;;4972460;28;20086;-63
2023/07/25 02:41:13;;;;;;;25.33;22.92;;;18.30;1.00;;;;;;4973785;28;20045;-63
2023/07/25 02:43:39;;;;;;;25.65;21.98;;;18.30;1.00;;;;;;4974395;28;20083;-63
2023/07/25 02:46:04;;;;;;;24.40;21.80;;;18.20;1.00;;;;;;4974096;28;20046;-63
2023/07/25 02:48:30;;;;;;;24.35;22.08;;;18.20;1.00;;;;;;4977887;28;20457;-64
2023/07/25 02:50:55;;;;;;;25.13;22.73;;;18.60;1.00;;;;;;4984645;28;20495;-64
2023/07/25 02:53:21;;;;;;;21.38;19.15;;;18.40;1.00;;;;;;4972363;28;20133;-63
2023/07/25 02:55:47;;;;;;;21.13;18.83;;;18.40;1.00;;;;;;4960087;28;20034;-63
2023/07/25 02:58:13;;;;;;;23.33;20.95;;;18.60;1.00;;;;;;4956197;28;20116;-63
2023/07/25 03:00:39;;;;;;;21.65;19.40;;;18.50;1.00;;;;;;4970514;28;20085;-64
2023/07/25 03:03:04;;;;;;;21.95;19.75;;;18.60;1.00;;;;;;4972522;28;20062;-64
2023/07/25 03:05:30;;;;;;;21.50;19.27;;;18.70;1.00;;;;;;4973382;28;20315;-63
2023/07/25 03:07:56;;;;;;;21.10;17.88;;;18.60;99.90;;;;;;4972984;28;20125;-64
2023/07/25 03:10:22;;;;;;;21.52;17.98;;;18.60;99.90;;;;;;4973259;28;20039;-64
2023/07/25 03:12:48;;;;;;;20.95;18.98;;;18.60;99.90;;;;;;4973312;28;20049;-64
2023/07/25 03:15:13;;;;;;;23.02;17.73;;;18.50;99.90;;;;;;4972889;28;20101;-64
2023/07/25 03:17:39;;;;;;;20.92;18.83;;;18.50;99.90;;;;;;4973334;28;20038;-64
2023/07/25 03:20:06;;;;;;;19.20;17.27;;;18.40;99.90;;;;;;4973387;28;20046;-64
2023/07/25 03:22:32;;;;;;;20.83;18.95;;;18.30;99.90;;;;;;4972616;28;20043;-63
2023/07/25 03:24:57;;;;;;;21.10;18.88;;;18.30;99.90;;;;;;4967331;28;20046;-64
2023/07/25 03:27:24;;;;;;;20.85;18.58;;;18.30;99.90;;;;;;4972385;28;20045;-64
2023/07/25 03:29:50;;;;;;;19.05;17.38;;;18.50;99.90;;;;;;4973370;28;20039;-64
2023/07/25 03:32:15;;;;;;;21.13;19.15;;;18.20;99.90;;;;;;4972968;28;20042;-63
2023/07/25 03:34:41;;;;;;;22.73;20.67;;;18.20;99.90;;;;;;4972476;28;20500;-63
2023/07/25 03:37:06;;;;;;;24.75;22.27;;;18.10;99.90;;;;;;4971950;28;20057;-64
2023/07/25 03:39:32;;;;;;;23.40;21.40;;;18.10;99.90;;;;;;4972955;28;20467;-63
2023/07/25 03:41:58;;;;;;;24.85;22.45;;;18.10;99.90;;;;;;4972946;28;20105;-63
2023/07/25 03:44:23;;;;;;;22.77;20.63;;;18.00;99.90;;;;;;4972673;28;20066;-64
2023/07/25 03:46:49;;;;;;;24.60;22.05;;;18.10;99.90;;;;;;4972330;28;20788;-63
2023/07/25 03:49:14;;;;;;;25.23;22.60;;;18.20;99.90;;;;;;4972944;28;20408;-64
2023/07/25 03:51:40;;;;;;;26.73;22.20;;;18.20;99.90;;;;;;4972557;28;20097;-63
2023/07/25 03:54:06;;;;;;;25.15;22.73;;;18.30;99.90;;;;;;4972042;28;20038;-64
2023/07/25 03:56:32;;;;;;;25.48;20.65;;;18.40;99.90;;;;;;4972764;28;20178;-64
2023/07/25 03:59:01;;;;;;;23.73;21.40;;;18.50;99.90;;;;;;4972708;28;20042;-64
2023/07/25 04:01:27;;;;;;;25.35;22.52;;;18.50;99.90;;;;;;4972767;28;20070;-64
2023/07/25 04:03:53;;;;;;;24.38;22.23;;;18.50;99.90;;;;;;4972002;28;20126;-64
2023/07/25 04:06:19;;;;;;;26.52;23.88;;;18.40;99.90;;;;;;4972502;28;20466;-64
2023/07/25 04:08:45;;;;;;;24.20;22.20;;;18.30;99.90;;;;;;4971711;28;20527;-64
2023/07/25 04:11:12;;;;;;;23.60;20.33;;;18.30;99.90;;;;;;4971961;28;20070;-63
2023/07/25 04:13:38;;;;;;;24.35;22.23;;;18.40;99.90;;;;;;4972144;28;20129;-64
2023/07/25 04:16:04;;;;;;;21.30;19.20;;;18.30;99.90;;;;;;4972482;28;20118;-64
2023/07/25 04:18:29;;;;;;;23.58;21.58;;;18.30;99.90;;;;;;4970770;28;20240;-63
2023/07/25 04:20:55;;;;;;;29.33;22.52;;;18.30;99.90;;;;;;4971941;28;20042;-63
2023/07/25 04:23:26;;;;;;;24.00;21.58;;;18.30;99.90;;;;;;4970847;28;20069;-63
2023/07/25 04:25:51;;;;;;;24.27;21.90;;;18.30;99.90;;;;;;4971443;28;20072;-63
2023/07/25 04:28:17;;;;;;;24.17;21.95;;;18.40;99.90;;;;;;4971623;28;20043;-63
2023/07/25 04:30:43;;;;;;;23.63;21.27;;;18.40;99.90;;;;;;4971860;28;20145;-63
2023/07/25 04:33:08;;;;;;;20.13;18.30;;;18.30;99.90;;;;;;4970347;28;20118;-64
2023/07/25 04:35:34;;;;;;;20.55;18.73;;;18.40;99.90;;;;;;4971332;28;20119;-64
2023/07/25 04:38:00;;;;;;;20.48;18.70;;;18.40;99.90;;;;;;4971452;28;20093;-63
2023/07/25 04:40:25;;;;;;;20.40;18.25;;;18.30;73.00;;;;;;4972040;28;20136;-63
2023/07/25 04:42:51;;;;;;;19.45;17.77;;;18.30;56.10;;;;;;4972385;28;20085;-64
2023/07/25 04:45:17;;;;;;;19.58;16.60;;;18.40;35.70;;;;;;4972042;28;20031;-64
2023/07/25 04:47:42;;;;;;;18.85;16.95;;;18.30;1.00;;;;;;4971018;28;20035;-64
2023/07/25 04:50:09;;;;;;;21.55;18.90;;;18.40;1.00;;;;;;4970159;28;20401;-65
2023/07/25 04:52:34;;;;;;;18.92;17.00;;;18.30;1.00;;;;;;4971746;28;20034;-64
2023/07/25 04:55:00;;;;;;;19.15;17.17;;;18.50;1.00;;;;;;4971803;28;20041;-64
2023/07/25 04:57:26;;;;;;;19.88;18.35;;;18.40;1.00;;;;;;4971618;28;20042;-64
2023/07/25 04:59:52;;;;;;;20.50;18.83;;;18.70;1.00;;;;;;4971640;28;20046;-63
2023/07/25 05:02:20;;;;;;;21.17;19.42;;;18.30;1.00;;;;;;4971427;28;20042;-64
2023/07/25 05:04:46;;;;;;;17.83;16.40;;;18.30;1.00;;;;;;4970411;28;20496;-64
2023/07/25 05:07:13;;;;;;;16.17;14.77;;;18.30;1.00;;;;;;4970989;28;20059;-64
2023/07/25 05:09:39;;;;;;;18.70;16.95;;;18.30;1.00;;;;;;4969996;28;20449;-65
2023/07/25 05:12:05;;;;;;;19.20;17.48;;;18.40;1.00;;;;;;4971226;28;20036;-64
2023/07/25 05:14:31;;;;;;;21.77;17.67;;;18.40;1.00;;;;;;4970979;28;20047;-64
2023/07/25 05:16:56;;;;;;;20.60;18.90;;;18.40;1.00;;;;;;4971100;28;20070;-64
2023/07/25 05:19:23;;;;;;;22.52;20.52;;;18.40;1.00;;;;;;4969763;28;20074;-64
2023/07/25 05:21:49;;;;;;;20.33;18.40;;;18.80;1.00;;;;;;4971103;28;20050;-64
2023/07/25 05:24:15;;;;;;;21.17;19.23;;;18.50;1.00;;;;;;4971606;28;20038;-64
2023/07/25 05:26:41;;;;;;;23.00;20.83;;;18.50;1.00;;;;;;4970847;28;20069;-64
2023/07/25 05:29:07;;;;;;;19.15;16.70;;;18.50;1.00;;;;;;4971130;28;20536;-64
2023/07/25 05:31:32;;;;;;;20.00;18.10;;;18.60;1.00;;;;;;4971469;28;20118;-64
2023/07/25 05:33:58;;;;;;;20.13;18.42;;;18.70;1.00;;;;;;4970407;28;20089;-66
2023/07/25 05:36:23;;;;;;;18.60;16.70;;;18.80;1.00;;;;;;4970419;28;20042;-64
2023/07/25 05:38:49;;;;;;;18.98;16.70;;;18.90;1.00;;;;;;4974812;28;20389;-64
2023/07/25 05:41:15;;;;;;;18.70;16.83;;;19.30;1.00;;;;;;4971291;28;20045;-64
2023/07/25 05:43:40;;;;;;;19.35;17.45;;;19.00;1.00;;;;;;4970229;28;20090;-64
2023/07/25 05:46:07;;;;;;;21.13;19.10;;;19.10;1.00;;;;;;4967131;28;20514;-64
2023/07/25 05:48:33;;;;;;;21.58;19.60;;;19.10;1.00;;;;;;4973278;28;20046;-64
2023/07/25 05:50:58;;;;;;;22.25;20.30;;;19.40;1.00;;;;;;4973966;28;20023;-64
2023/07/25 05:53:24;;;;;;;17.23;15.57;;;19.20;1.00;;;;;;4972681;28;20043;-64
2023/07/25 05:55:50;;;;;;;19.02;17.33;;;19.20;1.00;;;;;;4969206;28;20081;-64
2023/07/25 05:58:16;;;;;;;19.08;17.58;;;19.20;1.00;;;;;;4967866;28;20044;-64
2023/07/25 06:00:43;;;;;;;21.67;19.65;;;19.10;1.00;;;;;;4966796;28;20500;-64
2023/07/25 06:03:13;;;;;;;23.50;21.25;;;19.00;1.00;;;;;;4971598;28;20093;-64
2023/07/25 06:05:39;;;;;;;23.92;21.70;;;18.90;1.00;;;;;;4966352;28;20051;-64
2023/07/25 06:08:05;;;;;;;23.48;21.67;;;18.90;1.00;;;;;;4966650;28;20043;-64
2023/07/25 06:10:31;;;;;;;23.83;21.63;;;18.80;1.00;;;;;;4964462;28;20403;-64
2023/07/25 06:12:57;;;;;;;22.77;20.65;;;19.00;1.00;;;;;;4970802;28;20043;-64
2023/07/25 06:15:23;;;;;;;20.70;18.80;;;19.10;1.00;;;;;;4967538;28;20035;-64
2023/07/25 06:17:48;;;;;;;18.35;16.85;;;19.20;1.00;;;;;;4971582;28;20046;-64
2023/07/25 06:20:15;;;;;;;18.60;16.92;;;19.70;1.00;;;;;;4972339;28;20043;-64
2023/07/25 06:22:41;;;;;;;17.05;15.40;;;19.40;1.00;;;;;;4971012;28;20121;-64
2023/07/25 06:25:08;;;;;;;19.05;17.33;;;19.40;99.90;;;;;;4972268;28;20114;-64
2023/07/25 06:27:34;;;;;;;17.42;15.93;;;19.40;99.90;;;;;;4964547;28;20039;-64
2023/07/25 06:30:03;;;;;;;18.40;16.85;;;19.40;99.90;;;;;;4968270;28;20500;-64
2023/07/25 06:32:30;;;;;;;18.08;16.58;;;19.50;99.90;;;;;;4968416;28;20038;-64
2023/07/25 06:34:56;;;;;;;17.52;16.02;;;19.60;99.90;;;;;;4972974;28;20039;-64
2023/07/25 06:37:21;;;;;;;16.10;14.60;;;19.60;99.90;;;;;;4969898;28;20081;-64
2023/07/25 06:39:47;;;;;;;16.70;15.23;;;19.60;99.90;;;;;;4971148;28;20045;-64
2023/07/25 06:42:12;;;;;;;16.67;15.48;;;19.60;99.90;;;;;;4971910;28;20046;-64
2023/07/25 06:44:38;;;;;;;16.75;15.18;;;19.60;99.90;;;;;;4973116;28;20511;-64
2023/07/25 06:47:04;;;;;;;16.38;14.93;;;19.50;99.90;;;;;;4970908;28;20050;-64
2023/07/25 06:49:29;;;;;;;19.08;17.40;;;19.50;99.90;;;;;;4969753;28;20043;-64
2023/07/25 06:51:55;;;;;;;17.70;16.23;;;19.60;99.90;;;;;;4973627;28;20046;-64
2023/07/25 06:54:21;;;;;;;18.35;16.75;;;19.50;99.90;;;;;;4970763;28;20043;-64
2023/07/25 06:56:47;;;;;;;17.70;15.82;;;19.60;99.90;;;;;;4970172;28;20043;-64
2023/07/25 06:59:13;;;;;;;20.55;16.23;;;19.60;99.90;;;;;;4964615;28;20045;-65
2023/07/25 07:01:38;;;;;;;13.98;11.98;;;21.00;99.90;;;;;;4970195;28;20046;-65
2023/07/25 07:04:04;;;;;;;15.10;13.13;;;19.80;99.90;;;;;;4969161;28;20133;-64
2023/07/25 07:06:30;;;;;;;13.73;12.50;;;19.80;99.90;;;;;;4969733;28;20115;-72
2023/07/25 07:08:55;;;;;;;12.93;11.68;;;19.80;99.90;;;;;;4970190;28;20064;-73
2023/07/25 07:11:21;;;;;;;14.45;13.05;;;19.80;99.90;;;;;;4973088;28;20069;-69
2023/07/25 07:13:46;;;;;;;12.68;11.50;;;20.00;99.90;;;;;;4970618;28;20043;-65
2023/07/25 07:16:13;;;;;;;16.02;14.38;;;20.20;99.90;;;;;;4967340;28;20046;-66
2023/07/25 07:18:39;;;;;;;12.50;11.40;;;20.30;99.90;;;;;;4968855;28;20043;-65
2023/07/25 07:21:05;;;;;;;14.48;12.95;;;20.40;99.90;;;;;;4969289;28;20089;-65
2023/07/25 07:23:30;;;;;;;14.07;12.80;;;20.60;99.90;;;;;;4967863;28;20053;-65
2023/07/25 07:25:56;;;;;;;14.93;13.43;;;20.90;99.90;;;;;;4969526;28;20076;-66
2023/07/25 07:28:22;;;;;;;13.65;12.48;;;20.90;99.90;;;;;;4968567;28;20413;-65
2023/07/25 07:30:51;;;;;;;10.52;9.10;;;20.80;99.90;;;;;;4969099;28;20035;-66
2023/07/25 07:33:18;;;;;;;10.98;9.93;;;20.60;99.90;;;;;;4964928;28;20101;-65
2023/07/25 07:35:43;;;;;;;12.85;11.57;;;20.50;99.90;;;;;;4971202;28;20063;-65
2023/07/25 07:38:09;;;;;;;9.60;8.75;;;20.70;99.90;;;;;;4970660;28;20035;-65
2023/07/25 07:40:35;;;;;;;13.30;11.27;;;20.70;99.90;;;;;;4970820;28;20054;-66
2023/07/25 07:43:01;;;;;;;11.85;10.65;;;20.60;99.90;;;;;;4967331;28;20074;-66
2023/07/25 07:45:27;;;;;;;17.90;16.00;;;20.50;99.90;;;;;;4970996;28;20526;-66
2023/07/25 07:47:53;;;;;;;15.10;13.65;;;20.30;99.90;;;;;;4968274;28;20130;-66
2023/07/25 07:50:19;;;;;;;15.40;14.15;;;20.20;99.90;;;;;;4975222;28;20467;-65
2023/07/25 07:52:45;;;;;;;12.32;11.05;;;20.30;99.90;;;;;;4972226;28;20039;-66
2023/07/25 07:55:12;;;;;;;17.73;16.13;;;20.40;99.90;;;;;;4967112;28;20035;-65
2023/07/25 07:57:42;;;;;;;16.23;14.93;;;20.20;99.90;;;;;;4966140;28;20047;-66
2023/07/25 08:00:08;;;;;;;12.40;11.20;;;20.20;99.90;;;;;;4969024;28;20094;-66
2023/07/25 08:02:34;;;;;;;9.07;8.18;;;20.30;99.90;;;;;;4964114;28;20504;-66
2023/07/25 08:04:59;;;;;;;14.40;11.02;;;20.30;99.90;;;;;;4971029;28;20190;-66
2023/07/25 08:07:25;;;;;;;14.48;8.40;;;20.30;99.90;;;;;;4964774;28;20497;-65
2023/07/25 08:09:54;;;;;;;8.45;7.03;;;20.30;99.90;;;;;;4969150;28;20047;-65
2023/07/25 08:12:21;;;;;;;10.88;9.88;;;20.50;99.90;;;;;;4964072;28;20073;-65
2023/07/25 08:14:47;;;;;;;14.35;8.20;;;20.80;99.90;;;;;;4966903;28;20039;-65
2023/07/25 08:17:13;;;;;;;11.02;8.40;;;21.10;99.90;;;;;;4968800;28;20520;-65
2023/07/25 08:19:39;;;;;;;9.10;8.20;;;21.10;99.90;;;;;;4964898;28;20053;-65
2023/07/25 08:22:05;;;;;;;9.23;8.30;;;21.40;99.90;;;;;;4971941;28;20054;-66
2023/07/25 08:24:32;;;;;;;11.02;8.35;;;21.50;99.90;;;;;;4968866;28;20185;-65
2023/07/25 08:26:59;;;;;;;9.90;6.50;;;21.50;99.90;;;;;;4973256;28;20047;-65
2023/07/25 08:29:25;;;;;;;7.20;5.20;;;21.50;97.60;;;;;;4969781;28;20034;-66
2023/07/25 08:31:50;;;;;;;5.57;3.95;;;21.30;73.80;;;;;;4970609;28;20047;-65
2023/07/25 08:34:16;;;;;;;10.40;8.70;;;21.30;61.70;;;;;;4971717;28;20105;-65
2023/07/25 08:36:41;;;;;;;11.38;10.45;;;21.40;71.00;;;;;;4967806;28;20045;-68
2023/07/25 08:39:07;;;;;;;10.60;7.70;;;21.30;67.00;;;;;;4967613;28;20026;-67
2023/07/25 08:41:37;;;;;;;11.50;10.50;;;21.40;80.30;;;;;;4968761;28;20421;-65
2023/07/25 08:44:08;;;;;;;9.85;8.95;;;21.40;79.00;;;;;;4967343;28;20038;-65
2023/07/25 08:46:35;;;;;;;8.13;4.13;;;21.70;91.90;;;;;;4967476;28;20039;-65
2023/07/25 08:49:03;;;;;;;7.05;6.40;;;21.40;65.10;;;;;;4967594;28;20145;-65
2023/07/25 08:51:34;;;;;;;8.40;7.60;;;21.40;64.90;;;;;;4965678;28;20077;-65
2023/07/25 08:54:14;;;;;;;6.95;5.75;;;21.00;51.10;;;;;;4965214;28;20039;-65
2023/07/25 08:56:40;;;;;;;3.72;2.40;;;20.90;47.10;;;;;;4959152;28;20497;-65
2023/07/25 08:59:06;;;;;;;2.40;1.50;;;21.00;46.90;;;;;;4963498;28;20043;-65
2023/07/25 09:01:32;;;;;;;8.57;1.98;;;21.10;49.10;;;;;;4968883;28;20027;-65
2023/07/25 09:04:02;;;;;;;6.20;1.90;;;21.20;53.30;;;;;;4967510;28;20133;-65
2023/07/25 09:06:30;;;;;;;6.53;2.20;;;21.40;62.00;;;;;;4966344;28;20034;-65
2023/07/25 09:08:56;;;;;;;8.07;2.38;;;21.30;46.00;;;;;;4965744;28;20053;-65
2023/07/25 09:11:22;;;;;;;7.93;2.33;;;21.40;54.00;;;;;;4965847;28;20496;-65
2023/07/25 09:13:48;;;;;;;10.13;3.00;;;21.50;51.20;;;;;;4969358;28;20035;-65
2023/07/25 09:16:14;;;;;;;6.30;3.00;;;21.60;83.30;;;;;;4970294;28;20034;-65
2023/07/25 09:18:40;;;;;;;9.02;2.38;;;21.60;66.60;;;;;;4967137;28;20042;-65
2023/07/25 09:21:06;;;;;;;7.13;2.08;;;21.50;61.20;;;;;;4968745;28;20047;-65
2023/07/25 09:23:32;;;;;;;4.00;1.80;;;21.50;78.50;;;;;;4968537;28;20054;-65
2023/07/25 09:26:06;;;;;;;4.03;2.20;;;21.50;54.10;;;;;;4968778;28;20068;-64
2023/07/25 09:28:32;;;;;;;10.52;2.30;;;21.50;58.30;;;;;;4963881;28;20046;-65
2023/07/25 09:31:00;;;;;;;7.68;2.33;;;21.40;42.00;;;;;;4965920;28;20043;-64
2023/07/25 09:33:27;;;;;;;5.50;2.30;;;21.80;56.90;;;;;;4969021;28;20066;-65
2023/07/25 09:35:54;;;;;;;6.18;1.70;;;21.40;44.00;;;;;;4969753;28;20050;-65
2023/07/25 09:38:19;;;;;;;4.45;1.80;;;21.40;39.90;;;;;;4962603;28;20146;-65
2023/07/25 09:40:46;;;;;;;7.10;2.20;;;21.30;34.10;;;;;;4970788;28;20107;-65
2023/07/25 09:43:25;;;;;;;5.15;1.90;;;21.30;35.50;;;;;;4967265;28;20038;-65
2023/07/25 09:45:52;;;;;;;7.93;1.77;;;21.30;26.80;;;;;;4970405;28;20591;-65
2023/07/25 09:48:18;;;;;;;6.15;1.48;;;21.20;27.20;;;;;;4969385;28;20043;-65
2023/07/25 09:50:44;;;;;;;5.35;2.00;;;21.20;15.70;;;;;;4965722;28;20038;-65
2023/07/25 09:53:12;;;;;;;6.07;1.88;;;21.10;29.20;;;;;;4965202;28;20039;-65
2023/07/25 09:55:38;;;;;;;4.97;2.10;;;21.00;38.20;;;;;;4966570;28;20122;-65
2023/07/25 09:58:04;;;;;;;4.95;1.85;;;20.90;41.90;;;;;;4964708;28;20125;-65
2023/07/25 10:00:31;;;;;;;6.25;1.52;;;21.10;54.60;;;;;;4967497;28;20035;-64
2023/07/25 10:03:00;;;;;;;5.70;1.80;;;21.40;54.60;;;;;;4965738;28;20047;-65
2023/07/25 10:05:28;;;;;;;3.75;1.60;;;21.50;41.50;;;;;;4961052;28;20047;-65
2023/07/25 10:07:53;;;;;;;5.72;1.80;;;21.40;17.10;;;;;;4965273;28;20097;-65
2023/07/25 10:10:20;;;;;;;8.73;1.83;;;21.40;28.60;;;;;;4968292;28;20034;-64
2023/07/25 10:12:46;;;;;;;9.00;1.92;;;21.40;30.00;;;;;;4968547;28;20148;-65
2023/07/25 10:15:12;;;;;;;10.23;2.03;;;21.20;23.90;;;;;;4952431;28;20130;-65
2023/07/25 10:17:38;;;;;;;4.28;1.58;;;21.00;17.00;;;;;;4962589;28;20042;-65
2023/07/25 10:20:07;;;;;;;4.78;1.42;;;20.80;6.50;;;;;;4966512;28;20469;-66
2023/07/25 10:22:37;;;;;;;3.92;1.90;;;20.60;39.30;;;;;;4967847;28;20122;-65
2023/07/25 10:25:11;;;;;;;16.27;14.85;;;20.60;50.60;;;;;;4969576;28;20053;-65
2023/07/25 10:27:37;;;;;;;36.35;33.55;;;20.70;99.90;;;;;;4965622;28;20050;-68
2023/07/25 10:30:19;;;;;;;27.55;25.05;;;20.70;99.90;;;;;;4969770;28;20531;-64
2023/07/25 10:32:46;;;;;;;24.10;22.35;;;20.70;99.90;;;;;;4967620;28;20515;-64
2023/07/25 10:35:12;;;;;;;22.20;20.67;;;20.60;99.90;;;;;;4972272;28;20035;-64
2023/07/25 10:37:42;;;;;;;20.60;19.00;;;20.50;99.90;;;;;;4967169;28;20504;-65
2023/07/25 10:40:14;;;;;;;15.07;13.93;;;20.40;99.90;;;;;;4968534;28;20582;-65
2023/07/25 10:42:58;;;;;;;12.55;11.45;;;20.30;99.90;;;;;;4968436;28;20043;-65
2023/07/25 10:45:29;;;;;;;33.05;30.55;;;20.30;99.90;;;;;;4965711;28;20030;-65
2023/07/25 10:47:58;;;;;;;35.30;32.80;;;20.70;99.90;;;;;;4984970;28;20494;-65
2023/07/25 10:50:45;;;;;;;26.73;24.65;;;20.20;99.90;;;;;;4973990;28;20370;-65
2023/07/25 10:53:15;;;;;;;18.63;17.00;;;20.20;99.90;;;;;;4970100;28;20043;-65
2023/07/25 10:56:03;;;;;;;9.18;4.43;;;20.10;99.90;;;;;;4968836;28;20039;-65
2023/07/25 10:58:58;;;;;;;4.18;2.60;;;20.10;99.90;;;;;;4972590;28;20479;-65
2023/07/25 11:01:32;;;;;;;9.07;5.75;;;20.00;99.90;;;;;;4967912;28;20439;-65
2023/07/25 11:04:31;;;;;;;5.93;4.85;;;19.90;99.90;;;;;;4966194;28;20078;-65
2023/07/25 11:06:58;;;;;;;42.53;38.92;;;19.90;99.90;;;;;;4967358;28;20413;-65
2023/07/25 11:09:26;;;;;;;49.72;45.45;;;19.50;99.90;;;;;;4973323;28;20086;-65
2023/07/25 11:11:54;;;;;;;57.40;51.25;;;19.00;1.00;;;;;;4972237;28;20086;-64
2023/07/25 11:14:20;;;;;;;61.05;49.60;;;18.30;1.00;;;;;;4969071;28;20440;-65
2023/07/25 11:16:49;;;;;;;49.25;43.97;;;18.10;1.00;;;;;;4968465;28;20046;-65
2023/07/25 11:19:14;;;;;;;46.03;39.75;;;18.00;1.00;;;;;;4971089;28;20074;-65
2023/07/25 11:21:42;;;;;;;41.72;37.25;;;18.00;99.90;;;;;;4969706;28;20027;-65
2023/07/25 11:24:09;;;;;;;38.92;35.53;;;18.10;99.90;;;;;;4966954;28;20133;-65
2023/07/25 11:26:37;;;;;;;38.30;35.05;;;18.00;99.90;;;;;;4972499;28;20046;-65
2023/07/25 11:29:07;;;;;;;39.08;35.38;;;16.90;99.90;;;;;;4969377;28;20046;-65
2023/07/25 11:31:33;;;;;;;34.97;31.85;;;18.40;78.70;;;;;;4972509;28;20042;-65
2023/07/25 11:34:08;;;;;;;31.50;28.67;;;18.70;1.00;;;;;;4968169;28;20038;-65
2023/07/25 11:36:37;;;;;;;30.45;27.90;;;18.50;1.00;;;;;;4969975;28;20042;-65
2023/07/25 11:39:02;;;;;;;35.00;31.95;;;18.50;99.90;;;;;;4961804;28;20073;-65
2023/07/25 11:41:28;;;;;;;33.92;30.92;;;18.80;99.90;;;;;;4968168;28;20043;-65
2023/07/25 11:43:54;;;;;;;29.02;26.58;;;18.90;99.90;;;;;;4967417;28;20046;-65
2023/07/25 11:46:20;;;;;;;29.10;26.30;;;19.10;1.00;;;;;;4971516;28;20038;-65
2023/07/25 11:48:46;;;;;;;29.05;26.55;;;19.20;19.70;;;;;;4969632;28;20242;-65
2023/07/25 11:51:12;;;;;;;28.35;25.95;;;19.20;99.90;;;;;;4968974;28;20525;-65
2023/07/25 11:53:38;;;;;;;31.67;28.67;;;19.20;99.90;;;;;;4969873;28;20074;-65
2023/07/25 11:56:03;;;;;;;29.08;26.60;;;19.20;99.90;;;;;;4968232;28;20138;-65
2023/07/25 11:58:29;;;;;;;27.17;24.98;;;19.50;99.90;;;;;;4970145;28;20222;-65
2023/07/25 12:00:56;;;;;;;26.35;24.15;;;19.60;99.90;;;;;;4967184;28;20043;-65
2023/07/25 12:03:24;;;;;;;25.73;23.58;;;19.80;1.00;;;;;;4968195;28;20062;-65
2023/07/25 12:06:00;;;;;;;19.25;17.70;;;19.80;99.90;;;;;;4970971;28;20050;-65
2023/07/25 12:08:32;;;;;;;;;;;19.80;99.90;;;;;;4970963;28;20042;-65
2023/07/25 12:11:07;;;;;;;18.35;16.95;;;19.70;1.00;;;;;;4957584;28;19929;-65
2023/07/25 12:13:51;;;;;;;20.90;19.15;;;19.80;1.00;;;;;;4965755;28;20050;-65
2023/07/25 12:16:32;;;;;;;18.30;16.90;;;19.90;99.90;;;;;;4968019;28;20031;-65
2023/07/25 12:19:00;;;;;;;22.00;20.20;;;19.80;99.90;;;;;;4971739;28;20050;-65
2023/07/25 12:21:31;;;;;;;18.85;17.25;;;19.80;99.90;;;;;;4968806;28;20477;-65
2023/07/25 12:24:03;;;;;;;20.70;18.88;;;19.90;99.90;;;;;;4967726;28;20031;-64
2023/07/25 12:26:38;;;;;;;17.70;16.25;;;20.00;99.90;;;;;;4964010;28;20097;-65
2023/07/25 12:29:18;;;;;;;16.80;15.50;;;20.00;8.20;;;;;;4964681;28;20089;-64
2023/07/25 12:31:44;;;;;;;14.35;13.23;;;20.00;1.00;;;;;;4965789;28;20030;-64